Time;durP1;ratioP1;P1;durP2;ratioP2;P2;SDS_P1;SDS_P2;PMS_P1;PMS_P2;Temp;Humidity;BMP_temperature;BMP_pressure;BME280_temperature;BME280_humidity;BME280_pressure;Samples;Min_cycle;Max_cycle;Signal;HPM_P1;HPM_P2
2022/04/04 00:01:17;;;;;;;86.30;59.33;;;;;;;;;;5095894;28;20091;-73
2022/04/04 00:03:43;;;;;;;75.13;51.58;;;;;;;;;;5095750;28;20109;-74
2022/04/04 00:06:09;;;;;;;79.65;53.17;;;;;;;;;;5095864;28;20077;-73
2022/04/04 00:08:35;;;;;;;164.10;86.82;;;;;;;;;;5095686;28;20023;-73
2022/04/04 00:11:02;;;;;;;73.65;45.28;;;;;;;;;;5095591;28;20039;-73
2022/04/04 00:13:28;;;;;;;64.82;40.83;;;;;;;;;;5094982;28;20052;-74
2022/04/04 00:15:55;;;;;;;62.13;41.55;;;;;;;;;;5091672;28;20037;-86
2022/04/04 00:18:20;;;;;;;64.63;43.50;;;180.10;2252.80;;;;;;5095531;28;20024;-74
2022/04/04 00:20:46;;;;;;;69.85;44.35;;;;;;;;;;5093139;28;20512;-75
2022/04/04 00:23:13;;;;;;;57.30;38.47;;;;;;;;;;5095679;28;20020;-73
2022/04/04 00:25:43;;;;;;;73.97;49.70;;;;;;;;;;5095592;28;20020;-74
2022/04/04 00:28:09;;;;;;;61.35;43.03;;;180.10;2201.60;;;;;;5095508;28;20032;-76
2022/04/04 00:30:36;;;;;;;50.30;33.28;;;;;;;;;;5095569;28;20024;-73
2022/04/04 00:33:03;;;;;;;50.55;32.70;;;;;;;;;;5095614;28;20405;-77
2022/04/04 00:35:29;;;;;;;54.22;35.03;;;;;;;;;;5095482;28;20031;-77
2022/04/04 00:37:56;;;;;;;50.78;30.80;;;;;;;;;;5094114;28;20240;-77
2022/04/04 00:40:22;;;;;;;53.42;35.35;;;;;;;;;;5093397;28;20040;-78
2022/04/04 00:42:48;;;;;;;50.38;31.23;;;;;;;;;;5095922;28;20030;-76
2022/04/04 00:45:14;;;;;;;46.90;33.00;;;;;;;;;;5095214;28;20390;-77
2022/04/04 00:47:40;;;;;;;49.65;36.80;;;179.50;2252.80;;;;;;5095188;28;20023;-77
2022/04/04 00:50:06;;;;;;;48.95;33.15;;;179.50;2252.80;;;;;;5095137;28;20393;-76
2022/04/04 00:52:33;;;;;;;48.22;31.58;;;;;;;;;;5095169;28;20020;-77
2022/04/04 00:54:59;;;;;;;46.00;31.73;;;;;;;;;;5094931;28;20031;-79
2022/04/04 00:57:25;;;;;;;44.38;30.25;;;;;;;;;;5095060;28;20082;-78
2022/04/04 00:59:51;;;;;;;43.47;30.55;;;;;;;;;;5093355;28;20029;-78
2022/04/04 01:02:17;;;;;;;50.55;34.65;;;;;;;;;;5094937;28;20355;-79
2022/04/04 01:04:44;;;;;;;38.70;28.90;;;;;;;;;;5095082;28;20024;-79
2022/04/04 01:07:10;;;;;;;34.22;23.63;;;;;;;;;;5094830;28;20020;-79
2022/04/04 01:09:36;;;;;;;35.58;26.60;;;;;;;;;;5094932;28;20016;-78
2022/04/04 01:12:10;;;;;;;35.88;26.05;;;;;;;;;;5094623;28;20020;-78
2022/04/04 01:14:41;;;;;;;32.33;24.70;;;;;;;;;;5094595;28;20044;-79
2022/04/04 01:17:08;;;;;;;36.70;24.98;;;;;;;;;;5094763;28;20028;-79
2022/04/04 01:19:34;;;;;;;33.30;24.30;;;;;;;;;;5094714;28;20024;-79
2022/04/04 01:22:00;;;;;;;34.70;24.98;;;;;;;;;;5094703;28;20020;-76
2022/04/04 01:24:27;;;;;;;33.80;23.98;;;;;;;;;;5094420;28;20024;-78
2022/04/04 01:26:54;;;;;;;33.05;21.90;;;;;;;;;;5094481;28;20024;-79
2022/04/04 01:29:20;;;;;;;32.22;21.90;;;;;;;;;;5094480;28;20051;-78
2022/04/04 01:31:47;;;;;;;31.73;22.08;;;;;;;;;;5094264;28;20102;-79
2022/04/04 01:34:13;;;;;;;31.90;22.17;;;;;;;;;;5094242;28;20039;-78
2022/04/04 01:36:39;;;;;;;31.10;21.90;;;;;;;;;;5094282;28;20059;-79
2022/04/04 01:39:07;;;;;;;30.23;20.70;;;;;;;;;;5093365;28;20048;-79
2022/04/04 01:41:33;;;;;;;27.42;20.48;;;;;;;;;;5094075;28;20508;-79
2022/04/04 01:43:59;;;;;;;28.25;21.45;;;;;;;;;;5094188;28;20024;-79
2022/04/04 01:46:26;;;;;;;30.10;21.73;;;;;;;;;;5094251;28;20028;-75
2022/04/04 01:48:53;;;;;;;30.20;22.30;;;;;;;;;;5094080;28;20089;-77
2022/04/04 01:51:19;;;;;;;39.40;24.85;;;;;;;;;;5090870;28;20016;-74
2022/04/04 01:53:45;;;;;;;37.83;25.13;;;;;;;;;;5073449;28;20032;-73
2022/04/04 01:56:12;;;;;;;40.83;24.27;;;;;;;;;;5074786;28;20103;-74
2022/04/04 01:58:39;;;;;;;36.70;26.33;;;;;;;;;;5073592;28;20028;-76
2022/04/04 02:01:14;;;;;;;38.42;27.10;;;;;;;;;;5073661;28;20028;-75
2022/04/04 02:03:41;;;;;;;34.83;23.30;;;;;;;;;;5073421;28;20020;-74
2022/04/04 02:06:07;;;;;;;32.08;22.33;;;;;;;;;;5073475;28;20025;-74
2022/04/04 02:08:33;;;;;;;31.48;22.42;;;;;;;;;;5073331;28;20048;-78
2022/04/04 02:11:00;;;;;;;26.33;21.35;;;;;;;;;;5073529;28;20099;-79
2022/04/04 02:13:27;;;;;;;30.00;20.60;;;;;;;;;;5073099;28;20049;-76
2022/04/04 02:15:53;;;;;;;32.40;21.40;;;;;;;;;;5073436;28;20035;-77
2022/04/04 02:18:20;;;;;;;29.92;21.25;;;;;;;;;;5073340;28;20052;-76
2022/04/04 02:20:46;;;;;;;30.73;22.45;;;;;;;;;;5073409;28;20017;-77
2022/04/04 02:23:17;;;;;;;32.20;21.92;;;;;;;;;;5073392;28;20059;-75
2022/04/04 02:25:44;;;;;;;34.92;24.00;;;;;;;;;;5073182;28;20513;-77
2022/04/04 02:28:10;;;;;;;30.95;22.27;;;;;;;;;;5071559;28;20123;-77
2022/04/04 02:30:36;;;;;;;30.70;23.55;;;;;;;;;;5073133;28;20091;-75
2022/04/04 02:33:02;;;;;;;37.95;24.73;;;;;;;;;;5072941;28;20107;-77
2022/04/04 02:35:29;;;;;;;32.40;21.60;;;;;;;;;;5073108;28;20070;-77
2022/04/04 02:37:55;;;;;;;33.17;22.55;;;;;;;;;;5072929;28;20035;-76
2022/04/04 02:40:21;;;;;;;34.67;22.67;;;;;;;;;;5072908;28;20025;-76
2022/04/04 02:42:48;;;;;;;26.55;19.88;;;;;;;;;;5072402;28;20016;-76
2022/04/04 02:45:14;;;;;;;32.75;20.40;;;;;;;;;;5071754;28;20051;-77
2022/04/04 02:47:41;;;;;;;30.65;21.88;;;;;;;;;;5071628;28;20021;-74
2022/04/04 02:50:07;;;;;;;36.42;21.90;;;;;;;;;;5072892;28;20031;-76
2022/04/04 02:52:33;;;;;;;28.40;19.83;;;;;;;;;;5072809;28;20074;-75
2022/04/04 02:56:28;;;;;;;36.20;21.25;;;;;;;;;;5072938;28;20039;-75
2022/04/04 02:57:45;;;;;;;33.67;20.65;;;;;;;;;;5073010;28;20021;-75
2022/04/04 03:00:12;;;;;;;33.28;21.40;;;;;;;;;;5072916;28;20032;-74
2022/04/04 03:02:38;;;;;;;32.30;22.65;;;;;;;;;;5072889;28;20405;-73
2022/04/04 03:05:04;;;;;;;36.63;24.75;;;;;;;;;;5072623;28;20070;-74
2022/04/04 03:07:30;;;;;;;31.67;20.20;;;;;;;;;;5072901;28;20087;-76
2022/04/04 03:09:56;;;;;;;27.23;21.45;;;;;;;;;;5072749;28;20020;-76
2022/04/04 03:12:23;;;;;;;29.38;20.15;;;;;;;;;;5072660;28;20024;-76
2022/04/04 03:14:49;;;;;;;26.17;18.05;;;;;;;;;;5072501;28;20061;-77
2022/04/04 03:17:15;;;;;;;28.88;18.50;;;;;;;;;;5072718;28;20112;-76
2022/04/04 03:19:41;;;;;;;30.13;19.95;;;;;;;;;;5072715;28;20386;-76
2022/04/04 03:22:07;;;;;;;32.63;21.73;;;;;;;;;;5072210;28;20485;-74
2022/04/04 03:24:33;;;;;;;45.53;27.33;;;;;;;;;;5072677;28;20028;-75
2022/04/04 03:26:59;;;;;;;44.05;24.05;;;;;;;;;;5072599;28;20105;-75
2022/04/04 03:29:25;;;;;;;32.75;20.92;;;;;;;;;;5075091;28;20023;-76
2022/04/04 03:31:52;;;;;;;34.72;21.85;;;;;;;;;;5084359;28;20032;-74
2022/04/04 03:34:19;;;;;;;35.45;23.92;;;;;;;;;;5092588;28;20032;-74
2022/04/04 03:36:47;;;;;;;34.35;22.85;;;;;;;;;;5092790;28;20023;-74
2022/04/04 03:39:16;;;;;;;36.92;22.92;;;;;;;;;;5092784;28;20305;-73
2022/04/04 03:41:45;;;;;;;40.45;24.70;;;;;;;;;;5092902;28;20028;-78
2022/04/04 03:44:11;;;;;;;44.88;28.58;;;;;;;;;;5092544;28;20527;-78
2022/04/04 03:46:38;;;;;;;33.13;21.63;;;;;;;;;;5092674;28;20028;-74
2022/04/04 03:49:04;;;;;;;32.80;23.25;;;;;;;;;;5092738;28;20034;-75
2022/04/04 03:51:30;;;;;;;39.00;26.40;;;;;;;;;;5092386;28;20470;-75
2022/04/04 03:53:56;;;;;;;39.92;28.02;;;;;;;;;;5093985;28;20036;-75
2022/04/04 03:56:22;;;;;;;37.70;25.00;;;128.20;2252.80;;;;;;5097099;28;20575;-74
2022/04/04 03:58:48;;;;;;;41.47;24.92;;;128.10;2252.80;;;;;;5096105;28;20024;-74
2022/04/04 04:01:14;;;;;;;38.13;24.75;;;128.30;2252.80;;;;;;5096246;28;20106;-74
2022/04/04 04:03:39;;;;;;;44.00;27.60;;;128.30;2252.80;;;;;;5096122;28;20024;-74
2022/04/04 04:06:11;;;;;;;58.78;35.55;;;128.10;2252.80;;;;;;5096018;28;20378;-75
2022/04/04 04:08:46;;;;;;;43.83;26.15;;;;;;;;;;5096180;28;20030;-75
2022/04/04 04:11:14;;;;;;;41.30;25.08;;;;;;;;;;5096027;28;20073;-76
2022/04/04 04:13:41;;;;;;;47.72;30.88;;;;;;;;;;5095571;28;20051;-75
2022/04/04 04:16:09;;;;;;;36.35;24.58;;;;;;;;;;5095774;28;20024;-75
2022/04/04 04:18:35;;;;;;;32.60;22.67;;;;;;;;;;5095613;28;20051;-76
2022/04/04 04:21:02;;;;;;;35.17;25.05;;;;;;;;;;5095796;28;20095;-75
2022/04/04 04:23:28;;;;;;;34.00;23.70;;;;;;;;;;5095845;28;20020;-77
2022/04/04 04:25:54;;;;;;;44.65;29.75;;;;;;;;;;5095768;28;20550;-79
2022/04/04 04:28:21;;;;;;;47.67;30.60;;;;;;;;;;5095816;28;20028;-79
2022/04/04 04:30:47;;;;;;;42.50;26.80;;;;;;;;;;5095643;28;20132;-79
2022/04/04 04:33:13;;;;;;;41.83;24.70;;;;;;;;;;5076888;28;20051;-78
2022/04/04 04:35:40;;;;;;;33.88;22.48;;;;;;;;;;5095502;28;20038;-79
2022/04/04 04:38:06;;;;;;;38.63;23.30;;;;;;;;;;5095639;28;20386;-77
2022/04/04 04:40:32;;;;;;;32.92;21.88;;;128.00;2252.80;;;;;;5095316;28;20024;-77
2022/04/04 04:42:58;;;;;;;34.45;22.70;;;128.20;2252.80;;;;;;5095202;28;20028;-76
2022/04/04 04:45:24;;;;;;;29.45;22.10;;;128.20;2252.80;;;;;;5095524;28;20097;-77
2022/04/04 04:47:50;;;;;;;35.03;21.95;;;128.20;2252.80;;;;;;5095376;28;20114;-76
2022/04/04 04:50:19;;;;;;;33.30;23.35;;;128.10;2252.80;;;;;;5095057;28;20031;-77
2022/04/04 04:52:46;;;;;;;45.67;30.52;;;128.30;2252.80;;;;;;5095285;28;20498;-78
2022/04/04 04:55:13;;;;;;;33.95;23.90;;;128.40;2252.80;;;;;;5077160;28;20032;-81
2022/04/04 04:57:39;;;;;;;32.55;22.13;;;128.40;2252.80;;;;;;5077080;28;20024;-78
2022/04/04 05:00:08;;;;;;;33.63;22.65;;;128.30;2252.80;;;;;;5095104;28;20032;-80
2022/04/04 05:02:34;;;;;;;40.63;26.17;;;128.30;2252.80;;;;;;5095056;28;20473;-74
2022/04/04 05:05:00;;;;;;;49.17;28.23;;;128.50;2252.80;;;;;;5094254;28;20051;-75
2022/04/04 05:07:27;;;;;;;47.05;33.05;;;128.70;2252.80;;;;;;5078106;28;20490;-72
2022/04/04 05:09:53;;;;;;;83.00;49.85;;;128.70;2252.80;;;;;;5093315;28;20474;-78
2022/04/04 05:12:19;;;;;;;72.72;47.45;;;;;;;;;;5075752;28;20064;-76
2022/04/04 05:14:45;;;;;;;77.07;44.53;;;;;;;;;;5094557;28;20086;-74
2022/04/04 05:17:11;;;;;;;70.50;45.80;;;;;;;;;;5065835;28;20028;-78
2022/04/04 05:19:38;;;;;;;77.57;51.03;;;;;;;;;;5076759;28;20108;-75
2022/04/04 05:22:04;;;;;;;80.10;54.80;;;;;;;;;;5075380;28;20025;-77
2022/04/04 05:24:30;;;;;;;87.75;59.08;;;;;;;;;;5060257;28;20028;-78
2022/04/04 05:26:56;;;;;;;101.72;61.38;;;;;;;;;;5085976;28;20028;-76
2022/04/04 05:29:26;;;;;;;98.18;62.60;;;;;;;;;;5094392;28;20047;-76
2022/04/04 05:31:55;;;;;;;103.00;59.95;;;;;;;;;;5094330;28;20043;-77
2022/04/04 05:34:28;;;;;;;70.38;46.47;;;;;;;;;;5093909;28;20386;-77
2022/04/04 05:36:54;;;;;;;72.10;48.00;;;;;;;;;;5094412;28;20024;-75
2022/04/04 05:39:20;;;;;;;65.13;44.03;;;;;;;;;;5092881;28;20024;-75
2022/04/04 05:41:46;;;;;;;72.78;49.97;;;;;;;;;;5093057;28;20023;-74
2022/04/04 05:44:12;;;;;;;89.80;57.75;;;;;;;;;;5093109;28;20028;-75
2022/04/04 05:46:39;;;;;;;75.32;49.42;;;;;;;;;;5094084;28;20020;-74
2022/04/04 05:49:05;;;;;;;67.20;45.45;;;;;;;;;;5093711;28;20020;-74
2022/04/04 05:51:33;;;;;;;74.40;48.08;;;;;;;;;;5094172;28;20016;-75
2022/04/04 05:53:59;;;;;;;79.85;50.42;;;;;;;;;;5093764;28;20027;-75
2022/04/04 05:56:26;;;;;;;92.47;54.28;;;;;;;;;;5093881;28;20020;-75
2022/04/04 05:58:52;;;;;;;87.10;51.53;;;;;;;;;;5093867;28;20047;-75
2022/04/04 06:01:18;;;;;;;76.18;44.15;;;;;;;;;;5093763;28;20077;-74
2022/04/04 06:03:44;;;;;;;83.93;52.00;;;;;;;;;;5093670;28;20028;-74
2022/04/04 06:06:10;;;;;;;78.13;50.03;;;;;;;;;;5093613;28;20078;-75
2022/04/04 06:08:37;;;;;;;75.82;49.38;;;;;;;;;;5093571;28;20016;-75
2022/04/04 06:11:03;;;;;;;82.65;49.40;;;;;;;;;;5093504;28;20035;-75
2022/04/04 06:13:29;;;;;;;80.25;50.42;;;;;;;;;;5093240;28;20044;-75
2022/04/04 06:15:55;;;;;;;114.28;78.32;;;;;;;;;;5093393;28;20032;-75
2022/04/04 06:18:21;;;;;;;85.78;57.58;;;;;;;;;;5092467;28;20024;-75
2022/04/04 06:20:48;;;;;;;78.15;50.47;;;;;;;;;;5093605;28;20109;-75
2022/04/04 06:23:14;;;;;;;82.70;52.15;;;;;;;;;;5093423;28;20024;-74
2022/04/04 06:25:41;;;;;;;85.85;55.90;;;;;;;;;;5093673;28;20370;-74
2022/04/04 06:28:07;;;;;;;91.43;58.03;;;;;;;;;;5093265;28;20020;-74
2022/04/04 06:30:34;;;;;;;86.82;54.47;;;;;;;;;;5091589;28;20493;-74
2022/04/04 06:33:01;;;;;;;73.50;51.38;;;;;;;;;;5093003;28;20028;-74
2022/04/04 06:35:28;;;;;;;65.18;46.80;;;;;;;;;;5093107;28;20107;-74
2022/04/04 06:37:54;;;;;;;81.90;51.92;;;;;;;;;;5093190;28;20023;-76
2022/04/04 06:40:21;;;;;;;59.67;40.20;;;;;;;;;;5093091;28;20054;-74
2022/04/04 06:42:48;;;;;;;58.50;39.58;;;;;;;;;;5074796;28;20500;-74
2022/04/04 06:45:17;;;;;;;54.50;38.92;;;;;;;;;;5092944;28;20452;-74
2022/04/04 06:47:43;;;;;;;56.42;37.47;;;;;;;;;;5092898;28;20590;-75
2022/04/04 06:50:10;;;;;;;64.22;40.38;;;;;;;;;;5093045;28;20027;-74
2022/04/04 06:52:37;;;;;;;62.95;41.35;;;;;;;;;;5093166;28;20020;-75
2022/04/04 06:55:05;;;;;;;66.53;44.95;;;;;;;;;;5093064;28;20172;-75
2022/04/04 06:57:31;;;;;;;56.03;40.90;;;;;;;;;;5093011;28;20374;-74
2022/04/04 06:59:57;;;;;;;52.85;39.10;;;;;;;;;;5092993;28;20035;-74
2022/04/04 07:02:22;;;;;;;57.75;38.95;;;231.20;1945.60;;;;;;5092746;28;20020;-73
2022/04/04 07:04:49;;;;;;;57.65;40.20;;;256.00;1945.60;;;;;;5092822;28;20031;-73
2022/04/04 07:07:17;;;;;;;56.50;39.35;;;;;;;;;;5092835;28;20016;-74
2022/04/04 07:09:44;;;;;;;53.10;36.10;;;;;;;;;;5092888;28;20062;-74
2022/04/04 07:12:10;;;;;;;41.10;21.30;;;256.30;1817.60;;;;;;5092831;28;20038;-72
2022/04/04 07:14:36;;;;;;;21.13;15.45;;;256.40;1792.00;;;;;;5092646;28;20059;-73
2022/04/04 07:17:02;;;;;;;26.88;17.42;;;256.30;1766.40;;;;;;5092833;28;20524;-72
2022/04/04 07:19:33;;;;;;;29.00;18.90;;;;;;;;;;5092851;28;20077;-74
2022/04/04 07:22:02;;;;;;;40.90;18.48;;;256.60;1740.80;;;;;;5092790;28;20020;-73
2022/04/04 07:24:28;;;;;;;48.28;26.80;;;256.60;1740.80;;;;;;5092708;28;20413;-72
2022/04/04 07:26:54;;;;;;;44.80;29.77;;;;;;;;;;5092828;28;20085;-74
2022/04/04 07:29:20;;;;;;;29.83;21.55;;;281.70;1740.80;;;;;;5094907;28;20385;-72
2022/04/04 07:31:46;;;;;;;33.63;21.02;;;;;;;;;;5096594;28;20020;-73
2022/04/04 07:34:13;;;;;;;33.65;18.38;;;;;;;;;;5096462;28;20028;-74
2022/04/04 07:36:42;;;;;;;24.10;16.85;;;;;;;;;;5096533;28;20016;-74
2022/04/04 07:39:08;;;;;;;25.92;15.40;;;;;;;;;;5094896;28;20073;-74
2022/04/04 07:41:35;;;;;;;19.33;14.82;;;;;;;;;;5096366;28;20069;-74
2022/04/04 07:44:01;;;;;;;20.40;13.48;;;;;;;;;;5096728;28;20473;-74
2022/04/04 07:46:27;;;;;;;25.70;16.77;;;;;;;;;;5096102;28;20046;-74
2022/04/04 07:48:57;;;;;;;19.00;12.65;;;;;;;;;;5096499;28;20036;-73
2022/04/04 07:51:23;;;;;;;21.77;12.43;;;;;;;;;;5096084;28;20389;-74
2022/04/04 07:53:49;;;;;;;25.02;11.13;;;307.20;1510.40;;;;;;5095981;28;20198;-72
2022/04/04 07:56:15;;;;;;;28.55;14.85;;;;;;;;;;5096188;28;20056;-74
2022/04/04 07:58:41;;;;;;;17.73;10.48;;;307.50;1459.20;;;;;;5096423;28;20023;-74
2022/04/04 08:01:07;;;;;;;13.25;8.50;;;;;;;;;;5096179;28;20032;-74
2022/04/04 08:03:34;;;;;;;26.10;10.02;;;307.80;1408.00;;;;;;5096227;28;20358;-71
2022/04/04 08:06:00;;;;;;;28.15;10.93;;;307.90;1408.00;;;;;;5095994;28;20020;-71
2022/04/04 08:08:25;;;;;;;32.28;12.10;;;307.90;1408.00;;;;;;5096058;28;20158;-72
2022/04/04 08:10:52;;;;;;;26.38;10.35;;;308.10;1382.40;;;;;;5096030;28;20032;-72
2022/04/04 08:13:18;;;;;;;27.65;9.68;;;;;;;;;;5095734;28;20043;-72
2022/04/04 08:15:45;;;;;;;14.82;9.30;;;333.00;1382.40;;;;;;5095715;28;20040;-70
2022/04/04 08:18:11;;;;;;;13.88;7.43;;;333.20;1382.40;;;;;;5094310;28;20115;-71
2022/04/04 08:20:37;;;;;;;16.95;8.32;;;333.10;1356.80;;;;;;5095505;28;20028;-72
2022/04/04 08:23:02;;;;;;;12.38;8.32;;;333.10;1356.80;;;;;;5095584;28;20028;-71
2022/04/04 08:25:28;;;;;;;15.93;7.53;;;333.10;1356.80;;;;;;5093674;28;20036;-71
2022/04/04 08:27:54;;;;;;;11.80;8.32;;;333.20;1331.20;;;;;;5095398;28;20039;-70
2022/04/04 08:30:20;;;;;;;12.13;7.30;;;333.30;1331.20;;;;;;5095456;28;20062;-73
2022/04/04 08:32:46;;;;;;;11.93;8.73;;;333.30;1305.60;;;;;;5093659;28;20039;-72
2022/04/04 08:35:14;;;;;;;28.52;11.60;;;333.40;1305.60;;;;;;5095246;28;20039;-72
2022/04/04 08:37:41;;;;;;;10.35;7.80;;;;;;;;;;5095308;28;20028;-73
2022/04/04 08:40:09;;;;;;;16.02;7.93;;;;;;;;;;5094365;28;20436;-73
2022/04/04 08:42:35;;;;;;;28.08;15.18;;;;;;;;;;5095409;28;20624;-73
2022/04/04 08:45:02;;;;;;;16.45;14.73;;;;;;;;;;5095289;28;20055;-73
2022/04/04 08:47:29;;;;;;;23.77;17.02;;;;;;;;;;5094954;28;20070;-72
2022/04/04 08:49:56;;;;;;;15.30;7.40;;;;;;;;;;5095053;28;20408;-73
2022/04/04 08:52:23;;;;;;;12.75;11.30;;;;;;;;;;5094974;28;20505;-73
2022/04/04 08:54:49;;;;;;;11.20;8.70;;;;;;;;;;5095005;28;20040;-74
2022/04/04 08:57:16;;;;;;;11.68;7.13;;;;;;;;;;5095431;28;20042;-74
2022/04/04 08:59:42;;;;;;;11.38;7.55;;;;;;;;;;5095024;28;20486;-73
2022/04/04 09:02:08;;;;;;;10.35;8.00;;;;;;;;;;5094957;28;20024;-74
2022/04/04 09:04:34;;;;;;;16.33;12.18;;;;;;;;;;5094787;28;20096;-74
2022/04/04 09:07:05;;;;;;;19.48;12.50;;;;;;;;;;5094639;28;20439;-73
2022/04/04 09:09:37;;;;;;;26.33;13.82;;;;;;;;;;5094743;28;20020;-73
2022/04/04 09:12:10;;;;;;;19.23;12.73;;;;;;;;;;5094540;28;20406;-74
2022/04/04 09:14:51;;;;;;;23.65;12.40;;;;;;;;;;5094371;28;20052;-74
2022/04/04 09:17:19;;;;;;;20.67;12.65;;;;;;;;;;5094564;28;20421;-73
2022/04/04 09:19:45;;;;;;;18.95;11.95;;;;;;;;;;5092794;28;20316;-73
2022/04/04 09:22:18;;;;;;;23.95;13.60;;;409.70;1152.00;;;;;;5094231;28;20132;-74
2022/04/04 09:25:02;;;;;;;19.95;10.32;;;409.90;1075.20;;;;;;5094447;28;20024;-73
2022/04/04 09:27:30;;;;;;;21.33;10.43;;;409.90;1305.60;;;;;;5094162;28;20045;-73
2022/04/04 09:30:01;;;;;;;19.25;9.48;;;;;;;;;;5094582;28;20096;-74
2022/04/04 09:32:43;;;;;;;16.70;9.30;;;;;;;;;;5094204;28;20077;-73
2022/04/04 09:35:13;;;;;;;26.92;15.30;;;;;;;;;;5094151;28;20032;-73
2022/04/04 09:37:43;;;;;;;22.63;13.60;;;435.70;1280.00;;;;;;5094171;28;20016;-73
2022/04/04 09:40:15;;;;;;;22.38;12.38;;;;;;;;;;5093830;28;20107;-74
2022/04/04 09:42:42;;;;;;;17.10;14.00;;;;;;;;;;5094067;28;20495;-73
2022/04/04 09:45:12;;;;;;;19.05;12.23;;;;;;;;;;5094228;28;20031;-74
2022/04/04 09:47:45;;;;;;;17.75;12.50;;;;;;;;;;5093882;28;20065;-74
2022/04/04 09:50:11;;;;;;;44.83;30.73;;;;;;;;;;5093867;28;20469;-74
2022/04/04 09:52:52;;;;;;;19.45;10.10;;;;;;;;;;5094018;28;20021;-74
2022/04/04 09:55:32;;;;;;;9.85;8.73;;;;;;;;;;5093730;28;20457;-74
2022/04/04 09:57:58;;;;;;;19.60;9.93;;;;;;;;;;5093766;28;20020;-74
2022/04/04 10:00:25;;;;;;;13.88;8.60;;;;;;;;;;5093632;28;20028;-74
2022/04/04 10:02:52;;;;;;;9.45;7.75;;;;;;;;;;5092369;28;20166;-74
2022/04/04 10:05:19;;;;;;;10.45;8.23;;;;;;;;;;5093496;28;20028;-74
2022/04/04 10:07:45;;;;;;;18.10;10.45;;;768.50;563.20;;;;;;5093483;28;20024;-74
2022/04/04 10:10:11;;;;;;;15.68;10.88;;;;;;;;;;5093718;28;20035;-74
2022/04/04 10:12:38;;;;;;;11.82;9.00;;;;;;;;;;5093438;28;20031;-74
2022/04/04 10:15:07;;;;;;;8.43;7.25;;;;;;;;;;5093370;28;20076;-74
2022/04/04 10:17:33;;;;;;;14.48;11.40;;;;;;;;;;5093430;28;20028;-74
2022/04/04 10:20:00;;;;;;;9.27;8.05;;;;;;;;;;5093200;28;20024;-74
2022/04/04 10:22:27;;;;;;;15.52;7.95;;;;;;;;;;5093305;28;20016;-74
2022/04/04 10:24:53;;;;;;;33.83;24.85;;;;;;;;;;5093273;28;20028;-74
2022/04/04 10:27:22;;;;;;;19.88;15.25;;;;;;;;;;5093255;28;20020;-74
2022/04/04 10:29:48;;;;;;;9.68;6.28;;;870.70;512.00;;;;;;5093344;28;20024;-74
2022/04/04 10:32:25;;;;;;;13.13;9.10;;;870.90;512.00;;;;;;5093091;28;20024;-74
2022/04/04 10:34:51;;;;;;;9.15;8.15;;;;;;;;;;5093373;28;20036;-74
2022/04/04 10:37:21;;;;;;;15.15;9.95;;;;;;;;;;5092921;28;20016;-75
2022/04/04 10:39:48;;;;;;;11.90;8.25;;;;;;;;;;5093122;28;20034;-73
2022/04/04 10:42:25;;;;;;;20.00;17.17;;;;;;;;;;5093229;28;20024;-74
2022/04/04 10:45:12;;;;;;;16.23;13.32;;;;;;;;;;5093029;28;20408;-74
2022/04/04 10:47:44;;;;;;;14.90;11.82;;;;;;;;;;5092907;28;20450;-73
2022/04/04 10:50:23;;;;;;;12.75;10.13;;;819.50;512.00;;;;;;5092943;28;20028;-73
2022/04/04 10:52:52;;;;;;;9.38;7.32;;;819.50;563.20;;;;;;5093186;28;20020;-72
2022/04/04 10:55:25;;;;;;;20.67;11.30;;;;;;;;;;5091283;28;20050;-73
2022/04/04 10:57:52;;;;;;;21.67;11.57;;;;;;;;;;5092847;28;20363;-73
2022/04/04 11:00:18;;;;;;;11.50;8.18;;;;;;;;;;5092857;28;20080;-73
2022/04/04 11:02:44;;;;;;;10.70;7.63;;;;;;;;;;5092944;28;20017;-73
2022/04/04 11:08:02;;;;;;;;;;;;;;;;;;5098213;28;20032;-73
2022/04/04 11:10:42;;;;;;;18.90;9.82;;;;;;;;;;5096902;28;19904;-73
2022/04/04 11:13:08;;;;;;;10.23;8.00;;;;;;;;;;5096792;28;20083;-72
2022/04/04 11:15:44;;;;;;;16.17;9.07;;;;;;;;;;5096887;28;20038;-73
2022/04/04 11:18:13;;;;;;;9.27;8.32;;;;;;;;;;5097099;28;20020;-72
2022/04/04 11:20:50;;;;;;;10.95;9.63;;;;;;;;;;5096614;28;20168;-72
2022/04/04 11:23:17;;;;;;;9.15;8.07;;;;;;;;;;5096459;28;20024;-72
2022/04/04 11:25:52;;;;;;;17.50;10.55;;;;;;;;;;5096681;28;20139;-72
2022/04/04 11:28:25;;;;;;;9.88;6.93;;;;;;;;;;5096562;28;20107;-73
2022/04/04 11:30:55;;;;;;;7.10;6.32;;;;;;;;;;5097041;28;20028;-73
2022/04/04 11:33:25;;;;;;;9.15;6.93;;;845.10;537.60;;;;;;5096278;28;20023;-72
2022/04/04 11:35:52;;;;;;;8.00;5.95;;;;;;;;;;5096520;28;20020;-73
2022/04/04 11:38:20;;;;;;;7.15;6.45;;;;;;;;;;5096571;28;20030;-73
2022/04/04 11:40:52;;;;;;;7.32;5.68;;;;;;;;;;5096319;28;20386;-74
2022/04/04 11:43:21;;;;;;;8.52;5.70;;;;;;;;;;5096522;28;20051;-73
2022/04/04 11:45:49;;;;;;;9.43;6.35;;;666.30;614.40;;;;;;5096645;28;20036;-72
2022/04/04 11:48:23;;;;;;;7.28;6.20;;;666.20;665.60;;;;;;5096040;28;20531;-72
2022/04/04 11:50:57;;;;;;;7.65;6.30;;;691.70;588.80;;;;;;5096414;28;20028;-74
2022/04/04 11:53:25;;;;;;;10.13;7.13;;;;;;;;;;5096158;28;20430;-74
2022/04/04 11:55:52;;;;;;;9.63;6.18;;;;;;;;;;5096067;28;20043;-73
2022/04/04 11:58:20;;;;;;;11.73;6.90;;;;;;;;;;5095959;28;20020;-73
2022/04/04 12:00:54;;;;;;;7.90;6.68;;;;;;;;;;5095921;28;20386;-74
2022/04/04 12:03:21;;;;;;;9.13;7.00;;;589.20;742.40;;;;;;5095996;28;20381;-74
2022/04/04 12:05:49;;;;;;;21.73;15.57;;;589.00;742.40;;;;;;5095929;28;20069;-73
2022/04/04 12:08:19;;;;;;;15.20;10.73;;;564.10;742.40;;;;;;5095911;28;20024;-73
2022/04/04 12:10:47;;;;;;;10.57;8.85;;;589.00;716.80;;;;;;5095820;28;20365;-73
2022/04/04 12:13:13;;;;;;;17.80;13.60;;;;;;;;;;5095485;28;20043;-73
2022/04/04 12:15:44;;;;;;;20.17;10.05;;;;;;;;;;5094285;28;20435;-73
2022/04/04 12:18:10;;;;;;;25.23;12.05;;;;;;;;;;5094006;28;20492;-74
2022/04/04 12:20:40;;;;;;;17.17;9.05;;;;;;;;;;5095666;28;20028;-73
2022/04/04 12:25:54;;;;;;;10.20;8.43;;;;;;;;;;5095518;28;20109;-73
2022/04/04 12:28:24;;;;;;;16.15;10.73;;;;;;;;;;5095447;28;20028;-74
2022/04/04 12:30:50;;;;;;;10.18;7.78;;;;;;;;;;5095426;28;20105;-74
2022/04/04 12:33:16;;;;;;;15.23;8.30;;;;;;;;;;5093961;28;20393;-74
2022/04/04 12:35:43;;;;;;;22.98;10.48;;;;;;;;;;5095314;28;20036;-73
2022/04/04 12:38:10;;;;;;;11.10;9.75;;;;;;;;;;5093726;28;20028;-74
2022/04/04 12:40:38;;;;;;;11.90;8.15;;;640.10;665.60;;;;;;5094944;28;20078;-74
2022/04/04 12:43:05;;;;;;;11.48;8.30;;;;;;;;;;5095034;28;20027;-74
2022/04/04 12:45:32;;;;;;;26.65;14.13;;;;;;;;;;5094868;28;20114;-73
2022/04/04 12:48:00;;;;;;;13.40;8.07;;;;;;;;;;5095236;28;20016;-74
2022/04/04 12:50:37;;;;;;;11.45;7.80;;;;;;;;;;5095107;28;20107;-74
2022/04/04 12:53:04;;;;;;;13.73;9.85;;;563.20;768.00;;;;;;5094905;28;20045;-74
2022/04/04 12:55:31;;;;;;;29.48;18.30;;;;;;;;;;5095057;28;20081;-74
2022/04/04 12:58:14;;;;;;;17.30;10.95;;;;;;;;;;5094888;28;20060;-74
2022/04/04 13:00:40;;;;;;;18.77;10.93;;;537.80;793.60;;;;;;5094890;28;20032;-74
2022/04/04 13:03:27;;;;;;;14.30;9.27;;;512.60;819.20;;;;;;5094434;28;20024;-74
2022/04/04 13:05:54;;;;;;;16.85;10.18;;;;;;;;;;5094578;28;20520;-74
2022/04/04 13:08:21;;;;;;;100.55;55.17;;;;;;;;;;5094884;28;20038;-74
2022/04/04 13:11:04;;;;;;;43.88;24.90;;;;;;;;;;5094673;28;20064;-73
2022/04/04 13:13:30;;;;;;;12.63;10.13;;;;;;;;;;5094500;28;20143;-74
2022/04/04 13:15:56;;;;;;;14.25;8.40;;;;;;;;;;5093195;28;20024;-74
2022/04/04 13:18:23;;;;;;;26.58;16.45;;;;;;;;;;5094351;28;20027;-74
2022/04/04 13:20:50;;;;;;;19.00;14.88;;;;;;;;;;5094785;28;20103;-74
2022/04/04 13:23:16;;;;;;;9.93;8.38;;;;;;;;;;5094160;28;20016;-74
2022/04/04 13:25:42;;;;;;;11.63;8.70;;;;;;;;;;5094181;28;20026;-74
2022/04/04 13:28:10;;;;;;;19.23;11.30;;;;;;;;;;5094036;28;20439;-76
2022/04/04 13:30:36;;;;;;;16.23;9.77;;;;;;;;;;5094205;28;20469;-74
2022/04/04 13:33:03;;;;;;;10.93;8.50;;;;;;;;;;5093870;28;20424;-74
2022/04/04 13:35:29;;;;;;;15.50;8.45;;;;;;;;;;5093747;28;20469;-74
2022/04/04 13:37:55;;;;;;;14.55;9.45;;;;;;;;;;5094047;28;20148;-74
2022/04/04 13:40:21;;;;;;;16.95;11.48;;;;;;;;;;5092694;28;20501;-73
2022/04/04 13:42:47;;;;;;;12.20;9.65;;;;;;;;;;5094134;28;20024;-73
2022/04/04 13:45:13;;;;;;;16.00;9.35;;;;;;;;;;5094131;28;20090;-73
2022/04/04 13:47:39;;;;;;;19.52;12.73;;;;;;;;;;5094004;28;20047;-73
2022/04/04 13:50:05;;;;;;;16.80;11.27;;;;;;;;;;5094476;28;20055;-73
2022/04/04 13:52:32;;;;;;;17.05;12.38;;;;;;;;;;5093734;28;20560;-73
2022/04/04 13:54:58;;;;;;;14.95;10.93;;;;;;;;;;5093673;28;20394;-73
2022/04/04 13:57:24;;;;;;;17.00;11.10;;;;;;;;;;5094011;28;20106;-74
2022/04/04 13:59:50;;;;;;;16.55;11.20;;;;;;;;;;5093683;28;20035;-75